Terminal Aerodrome Forecast
Issued by NWS

Home | Current Version | Previous Version | Text Only | Print | Product List | Glossary On
Versions: 1 2 3 4 5 6 7 8 9 10 11 12
000
FTUS42 TJSJ 152320
TAFJSJ
TAF
TJSJ 152320Z 1600/1624 08011KT P6SM SCT030 SCT050
     FM161300 08012KT P6SM SCT025
     FM162300 08010KT P6SM FEW025=

USA.gov is the U.S. government's official web portal to all federal, state and local government web resources and services.